Terminal Aerodrome Forecast
Issued by NWS

Home | Current Version | Previous Version | Text Only | Print | Product List | Glossary On
Versions: 1 2 3 4 5 6 7 8 9 10 11 12 13
375
FTUS42 KTBW 182324
TAFLAL
TAF
KLAL 182324Z 1900/1924 VRB03KT P6SM FEW050
     FM191400 23006KT P6SM VCSH SCT050 SCT250
     FM192000 29008KT P6SM VCSH SCT015 BKN025
     FM192300 33007KT P6SM FEW030 SCT045
      AMD NOT SKED 1902/1911=

USA.gov is the U.S. government's official web portal to all federal, state and local government web resources and services.